createdAt,value
2017-06-28T00:00:20.343Z,995.97
2017-06-28T00:00:46.447Z,995.93
2017-06-28T00:01:12.542Z,995.96
2017-06-28T00:01:38.683Z,995.96
2017-06-28T00:02:04.820Z,995.93
2017-06-28T00:02:30.944Z,995.91
2017-06-28T00:02:57.085Z,995.87
2017-06-28T00:03:23.215Z,995.85
2017-06-28T00:03:49.358Z,995.84
2017-06-28T00:04:15.492Z,995.83
2017-06-28T00:04:41.634Z,995.79
2017-06-28T00:05:07.754Z,995.79
2017-06-28T00:05:33.889Z,995.78
2017-06-28T00:05:59.986Z,995.78
2017-06-28T00:06:26.078Z,995.77
2017-06-28T00:06:52.264Z,995.71
2017-06-28T00:07:18.393Z,995.77
2017-06-28T00:07:44.508Z,995.77
2017-06-28T00:08:10.611Z,995.73
2017-06-28T00:08:36.817Z,995.72
2017-06-28T00:09:02.936Z,995.7
2017-06-28T00:09:29.060Z,995.7
2017-06-28T00:09:55.226Z,995.69
2017-06-28T00:10:21.331Z,995.69
2017-06-28T00:10:47.485Z,995.66
2017-06-28T00:11:13.624Z,995.64
2017-06-28T00:11:39.752Z,995.67
2017-06-28T00:12:05.858Z,995.67
2017-06-28T00:12:31.946Z,995.63
2017-06-28T00:12:58.070Z,995.65
2017-06-28T00:13:24.287Z,995.66
2017-06-28T00:13:50.405Z,995.62
2017-06-28T00:14:16.530Z,995.61
2017-06-28T00:14:42.680Z,995.65
2017-06-28T00:15:08.838Z,995.57
2017-06-28T00:15:34.972Z,995.57
2017-06-28T00:16:01.060Z,995.55
2017-06-28T00:16:27.207Z,995.6
2017-06-28T00:16:53.313Z,995.57
2017-06-28T00:17:19.455Z,995.57
2017-06-28T00:17:45.602Z,995.56
2017-06-28T00:18:11.735Z,995.56
2017-06-28T00:18:37.854Z,995.55
2017-06-28T00:19:03.946Z,995.49
2017-06-28T00:19:30.111Z,995.5
2017-06-28T00:19:56.207Z,995.51
2017-06-28T00:20:22.323Z,995.49
2017-06-28T00:20:48.429Z,995.49
2017-06-28T00:21:14.529Z,995.49
2017-06-28T00:21:40.616Z,995.54
2017-06-28T00:22:06.770Z,995.46
2017-06-28T00:22:32.874Z,995.45
2017-06-28T00:22:58.959Z,995.46
2017-06-28T00:23:25.060Z,995.44
2017-06-28T00:23:51.166Z,995.45
2017-06-28T00:24:17.256Z,995.45
2017-06-28T00:24:43.404Z,995.4
2017-06-28T00:25:09.534Z,995.44
2017-06-28T00:25:35.626Z,995.39
2017-06-28T00:26:01.732Z,995.39
2017-06-28T00:26:27.845Z,995.37
2017-06-28T00:26:53.946Z,995.37
2017-06-28T00:27:20.080Z,995.35
2017-06-28T00:27:46.169Z,995.34
2017-06-28T00:28:12.290Z,995.36
2017-06-28T00:28:38.452Z,995.32
2017-06-28T00:29:04.544Z,995.32
2017-06-28T00:29:30.683Z,995.31
2017-06-28T00:29:56.793Z,995.3
2017-06-28T00:30:22.940Z,995.28
2017-06-28T00:30:49.100Z,995.26
2017-06-28T00:31:15.239Z,995.3
2017-06-28T00:31:41.358Z,995.27
2017-06-28T00:32:07.463Z,995.26
2017-06-28T00:32:33.556Z,995.24
2017-06-28T00:32:59.696Z,995.24
2017-06-28T00:33:25.831Z,995.25
2017-06-28T00:33:51.952Z,995.23
2017-06-28T00:34:18.089Z,995.24
2017-06-28T00:34:44.272Z,995.25
2017-06-28T00:35:10.399Z,995.2
2017-06-28T00:35:36.515Z,995.18
2017-06-28T00:36:02.619Z,995.22
2017-06-28T00:36:28.726Z,995.16
2017-06-28T00:36:54.817Z,995.19
2017-06-28T00:37:20.915Z,995.16
2017-06-28T00:37:47.030Z,995.18
2017-06-28T00:38:13.164Z,995.17
2017-06-28T00:38:39.320Z,995.16
2017-06-28T00:39:05.433Z,995.11
2017-06-28T00:39:31.563Z,995.15
2017-06-28T00:39:57.753Z,995.15
2017-06-28T00:40:23.893Z,995.15
2017-06-28T00:40:50.016Z,995.15
2017-06-28T00:41:16.119Z,995.12
2017-06-28T00:41:42.236Z,995.11
2017-06-28T00:42:08.332Z,995.12
2017-06-28T00:42:34.429Z,995.1
2017-06-28T00:43:00.586Z,995.1
2017-06-28T00:43:26.718Z,995.11
2017-06-28T00:43:52.854Z,995.09
2017-06-28T00:44:18.978Z,995.07
2017-06-28T00:44:45.168Z,995.1
2017-06-28T00:45:11.286Z,995.06
2017-06-28T00:45:37.435Z,995.09
2017-06-28T00:46:03.595Z,995.09
2017-06-28T00:46:29.688Z,995.08
2017-06-28T00:46:55.779Z,995.03
2017-06-28T00:47:21.917Z,995.06
2017-06-28T00:47:48.066Z,995.01
2017-06-28T00:48:14.216Z,995.01
2017-06-28T00:48:40.414Z,994.99
2017-06-28T00:49:06.559Z,994.99
2017-06-28T00:49:32.689Z,994.95
2017-06-28T00:49:58.810Z,994.93
2017-06-28T00:50:24.924Z,994.92
2017-06-28T00:50:51.033Z,994.91
2017-06-28T00:51:17.187Z,994.9
2017-06-28T00:51:43.277Z,994.94
2017-06-28T00:52:09.413Z,994.94
2017-06-28T00:52:35.540Z,994.9
2017-06-28T00:53:01.655Z,994.87
2017-06-28T00:53:27.781Z,994.88
2017-06-28T00:53:53.900Z,994.89
2017-06-28T00:54:20.008Z,994.89
2017-06-28T00:54:46.131Z,994.89
2017-06-28T00:55:12.294Z,994.87
2017-06-28T00:55:38.430Z,994.84
2017-06-28T00:56:04.586Z,994.88
2017-06-28T00:56:30.724Z,994.82
2017-06-28T00:56:56.880Z,994.88
2017-06-28T00:57:23.042Z,994.87
2017-06-28T00:57:49.230Z,994.87
2017-06-28T00:58:15.353Z,994.87
2017-06-28T00:58:41.513Z,994.88
2017-06-28T00:59:07.655Z,994.88
2017-06-28T00:59:33.809Z,994.85
2017-06-28T00:59:59.949Z,994.82
2017-06-28T01:00:26.051Z,994.84
2017-06-28T01:00:52.185Z,994.84
2017-06-28T01:01:18.273Z,994.8
2017-06-28T01:01:44.397Z,994.8
2017-06-28T01:02:10.527Z,994.78
2017-06-28T01:02:36.617Z,994.76
2017-06-28T01:03:02.735Z,994.76
2017-06-28T01:03:28.845Z,994.75
2017-06-28T01:03:54.965Z,994.74
2017-06-28T01:04:21.056Z,994.72
2017-06-28T01:04:47.192Z,994.69
2017-06-28T01:05:13.314Z,994.7
2017-06-28T01:05:39.405Z,994.67
2017-06-28T01:06:05.539Z,994.69
2017-06-28T01:06:31.666Z,994.68
2017-06-28T01:06:57.805Z,994.66
2017-06-28T01:07:23.907Z,994.67
2017-06-28T01:07:50.069Z,994.64
2017-06-28T01:08:16.232Z,994.64
2017-06-28T01:08:42.358Z,994.61
2017-06-28T01:09:08.518Z,994.6
2017-06-28T01:09:34.633Z,994.62
2017-06-28T01:10:00.753Z,994.58
2017-06-28T01:10:26.878Z,994.61
2017-06-28T01:10:53.037Z,994.55
2017-06-28T01:11:19.143Z,994.56
2017-06-28T01:11:45.281Z,994.53
2017-06-28T01:12:11.380Z,994.55
2017-06-28T01:12:37.515Z,994.53
2017-06-28T01:13:03.658Z,994.54
2017-06-28T01:13:29.754Z,994.53
2017-06-28T01:13:55.915Z,994.55
2017-06-28T01:14:22.089Z,994.53
2017-06-28T01:14:48.251Z,994.5
2017-06-28T01:15:14.386Z,994.53
2017-06-28T01:15:40.511Z,994.51
2017-06-28T01:16:06.641Z,994.47
2017-06-28T01:16:32.730Z,994.51
2017-06-28T01:16:58.827Z,994.54
2017-06-28T01:17:24.961Z,994.54
2017-06-28T01:17:51.054Z,994.53
2017-06-28T01:18:17.145Z,994.57
2017-06-28T01:18:43.254Z,994.54
2017-06-28T01:19:09.351Z,994.53
2017-06-28T01:19:35.442Z,994.52
2017-06-28T01:20:01.547Z,994.57
2017-06-28T01:20:27.648Z,994.52
2017-06-28T01:20:53.739Z,994.53
2017-06-28T01:21:19.839Z,994.54
2017-06-28T01:21:45.928Z,994.54
2017-06-28T01:22:12.069Z,994.52
2017-06-28T01:22:38.164Z,994.56
2017-06-28T01:23:04.279Z,994.53
2017-06-28T01:23:30.385Z,994.52
2017-06-28T01:23:56.541Z,994.49
2017-06-28T01:24:22.703Z,994.54
2017-06-28T01:24:48.855Z,994.52
2017-06-28T01:25:14.988Z,994.52
2017-06-28T01:25:41.086Z,994.51
2017-06-28T01:26:07.187Z,994.54
2017-06-28T01:26:33.319Z,994.53
2017-06-28T01:26:59.410Z,994.51
2017-06-28T01:27:25.542Z,994.48
2017-06-28T01:27:51.634Z,994.48
2017-06-28T01:28:17.786Z,994.53
2017-06-28T01:28:43.973Z,994.51
2017-06-28T01:29:10.112Z,994.52
2017-06-28T01:29:36.313Z,994.51
2017-06-28T01:30:02.420Z,994.53
2017-06-28T01:30:28.509Z,994.51
2017-06-28T01:30:54.640Z,994.51
2017-06-28T01:31:20.761Z,994.51
2017-06-28T01:31:46.855Z,994.5
2017-06-28T01:32:12.947Z,994.53
2017-06-28T01:32:39.077Z,994.52
2017-06-28T01:33:05.199Z,994.51
2017-06-28T01:33:31.333Z,994.5
2017-06-28T01:33:57.425Z,994.5
2017-06-28T01:34:23.594Z,994.53
2017-06-28T01:34:49.701Z,994.51
2017-06-28T01:35:15.819Z,994.51
2017-06-28T01:35:41.911Z,994.52
2017-06-28T01:36:08.043Z,994.5
2017-06-28T01:36:34.167Z,994.55
2017-06-28T01:37:00.260Z,994.53
2017-06-28T01:37:26.368Z,994.54
2017-06-28T01:37:52.496Z,994.54
2017-06-28T01:38:18.670Z,994.53
2017-06-28T01:38:44.866Z,994.55
2017-06-28T01:39:10.955Z,994.54
2017-06-28T01:39:37.062Z,994.55
2017-06-28T01:40:03.187Z,994.56
2017-06-28T01:40:29.302Z,994.52
2017-06-28T01:40:55.408Z,994.56
2017-06-28T01:41:21.536Z,994.53
2017-06-28T01:41:47.652Z,994.48
2017-06-28T01:42:13.780Z,994.53
2017-06-28T01:42:39.886Z,994.47
2017-06-28T01:43:05.999Z,994.5
2017-06-28T01:43:32.152Z,994.48
2017-06-28T01:43:58.271Z,994.46
2017-06-28T01:44:24.401Z,994.48
2017-06-28T01:44:50.556Z,994.46
2017-06-28T01:45:16.647Z,994.47
2017-06-28T01:45:42.751Z,994.47
2017-06-28T01:46:08.884Z,994.47
2017-06-28T01:46:34.973Z,994.46
2017-06-28T01:47:01.074Z,994.46
2017-06-28T01:47:27.210Z,994.49
2017-06-28T01:47:53.320Z,994.42
2017-06-28T01:48:19.466Z,994.45
2017-06-28T01:48:45.573Z,994.45
2017-06-28T01:49:11.719Z,994.42
2017-06-28T01:49:37.933Z,994.4
2017-06-28T01:50:04.096Z,994.42
2017-06-28T01:50:30.249Z,994.42
2017-06-28T01:50:56.365Z,994.4
2017-06-28T01:51:22.496Z,994.41
2017-06-28T01:51:48.594Z,994.4
2017-06-28T01:52:14.709Z,994.36
2017-06-28T01:52:40.814Z,994.41
2017-06-28T01:53:06.973Z,994.39
2017-06-28T01:53:33.088Z,994.36
2017-06-28T01:53:59.216Z,994.33
2017-06-28T01:54:25.431Z,994.3
2017-06-28T01:54:51.572Z,994.28
2017-06-28T01:55:17.676Z,994.27
2017-06-28T01:55:43.792Z,994.31
2017-06-28T01:56:09.947Z,994.25
2017-06-28T01:56:36.053Z,994.23
2017-06-28T01:57:02.142Z,994.25
2017-06-28T01:57:28.267Z,994.27
2017-06-28T01:57:54.432Z,994.22
2017-06-28T01:58:20.571Z,994.26
2017-06-28T01:58:46.690Z,994.24
2017-06-28T01:59:12.824Z,994.22
2017-06-28T01:59:38.945Z,994.25
2017-06-28T02:00:05.035Z,994.22
2017-06-28T02:00:31.167Z,994.24
2017-06-28T02:00:57.321Z,994.2
2017-06-28T02:01:23.427Z,994.24
2017-06-28T02:01:49.517Z,994.19
2017-06-28T02:02:15.638Z,994.21
2017-06-28T02:02:41.795Z,994.22
2017-06-28T02:03:07.914Z,994.22
2017-06-28T02:03:34.078Z,994.26
2017-06-28T02:04:00.215Z,994.22
2017-06-28T02:04:26.423Z,994.22
2017-06-28T02:04:52.537Z,994.22
2017-06-28T02:05:18.717Z,994.22
2017-06-28T02:05:44.844Z,994.21
2017-06-28T02:06:10.973Z,994.21
2017-06-28T02:06:37.094Z,994.22
2017-06-28T02:07:03.212Z,994.21
2017-06-28T02:07:29.318Z,994.22
2017-06-28T02:07:55.441Z,994.19
2017-06-28T02:08:21.560Z,994.19
2017-06-28T02:08:47.717Z,994.19
2017-06-28T02:09:13.899Z,994.17
2017-06-28T02:09:40.364Z,994.22
2017-06-28T02:10:06.465Z,994.19
2017-06-28T02:10:32.599Z,994.21
2017-06-28T02:10:58.710Z,994.21
2017-06-28T02:11:24.836Z,994.19
2017-06-28T02:11:50.959Z,994.16
2017-06-28T02:12:17.093Z,994.15
2017-06-28T02:12:43.247Z,994.16
2017-06-28T02:13:09.363Z,994.14
2017-06-28T02:13:35.469Z,994.11
2017-06-28T02:14:01.602Z,994.16
2017-06-28T02:14:27.715Z,994.17
2017-06-28T02:14:53.839Z,994.14
2017-06-28T02:15:19.974Z,994.12
2017-06-28T02:15:46.062Z,994.15
2017-06-28T02:16:12.159Z,994.13
2017-06-28T02:16:38.264Z,994.12
2017-06-28T02:17:04.384Z,994.09
2017-06-28T02:17:30.520Z,994.1
2017-06-28T02:17:56.661Z,994.1
2017-06-28T02:18:22.809Z,994.08
2017-06-28T02:18:48.968Z,994.08
2017-06-28T02:19:15.108Z,994.07
2017-06-28T02:19:41.255Z,994.04
2017-06-28T02:20:07.388Z,994.02
2017-06-28T02:20:33.481Z,994.08
2017-06-28T02:20:59.621Z,993.99
2017-06-28T02:21:25.731Z,993.97
2017-06-28T02:21:51.855Z,993.98
2017-06-28T02:22:17.971Z,994.01
2017-06-28T02:22:44.103Z,993.95
2017-06-28T02:23:10.197Z,993.96
2017-06-28T02:23:36.358Z,993.92
2017-06-28T02:24:02.506Z,993.95
2017-06-28T02:24:28.644Z,993.87
2017-06-28T02:24:54.754Z,993.91
2017-06-28T02:25:20.852Z,993.89
2017-06-28T02:25:46.965Z,993.85
2017-06-28T02:26:13.072Z,993.88
2017-06-28T02:26:39.196Z,993.79
2017-06-28T02:27:05.311Z,993.82
2017-06-28T02:27:31.437Z,993.81
2017-06-28T02:27:57.546Z,993.83
2017-06-28T02:28:23.663Z,993.83
2017-06-28T02:28:49.762Z,993.86
2017-06-28T02:29:15.901Z,993.82
2017-06-28T02:29:42.006Z,993.82
2017-06-28T02:30:08.103Z,993.81
2017-06-28T02:30:34.245Z,993.82
2017-06-28T02:31:00.347Z,993.81
2017-06-28T02:31:26.452Z,993.76
2017-06-28T02:31:52.538Z,993.78
2017-06-28T02:32:18.688Z,993.77
2017-06-28T02:32:44.848Z,993.79
2017-06-28T02:33:10.987Z,993.79
2017-06-28T02:33:37.135Z,993.75
2017-06-28T02:34:03.296Z,993.78
2017-06-28T02:34:29.391Z,993.77
2017-06-28T02:34:55.504Z,993.77
2017-06-28T02:35:21.671Z,993.8
2017-06-28T02:35:47.792Z,993.75
2017-06-28T02:36:13.908Z,993.76
2017-06-28T02:36:40.044Z,993.73
2017-06-28T02:37:06.227Z,993.72
2017-06-28T02:37:32.415Z,993.72
2017-06-28T02:37:58.520Z,993.75
2017-06-28T02:38:24.652Z,993.68
2017-06-28T02:38:50.789Z,993.64
2017-06-28T02:39:16.912Z,993.65
2017-06-28T02:39:43.004Z,993.66
2017-06-28T02:40:09.189Z,993.63
2017-06-28T02:40:35.287Z,993.62
2017-06-28T02:41:01.404Z,993.61
2017-06-28T02:41:27.508Z,993.6
2017-06-28T02:41:53.616Z,993.57
2017-06-28T02:42:19.700Z,993.6
2017-06-28T02:42:45.800Z,993.6
2017-06-28T02:43:11.932Z,993.58
2017-06-28T02:43:38.021Z,993.61
2017-06-28T02:44:04.119Z,993.63
2017-06-28T02:44:30.281Z,993.61
2017-06-28T02:44:56.374Z,993.64
2017-06-28T02:45:22.482Z,993.67
2017-06-28T02:45:48.622Z,993.67
2017-06-28T02:46:14.722Z,993.7
2017-06-28T02:46:40.856Z,993.72
2017-06-28T02:47:06.945Z,993.72
2017-06-28T02:47:33.068Z,993.7
2017-06-28T02:47:59.201Z,993.72
2017-06-28T02:48:25.353Z,993.76
2017-06-28T02:48:51.515Z,993.71
2017-06-28T02:49:17.680Z,993.75
2017-06-28T02:49:43.858Z,993.72
2017-06-28T02:50:09.973Z,993.73
2017-06-28T02:50:36.080Z,993.74
2017-06-28T02:51:02.174Z,993.72
2017-06-28T02:51:28.362Z,993.74
2017-06-28T02:51:54.456Z,993.73
2017-06-28T02:52:20.568Z,993.73
2017-06-28T02:52:46.704Z,993.75
2017-06-28T02:53:12.829Z,993.76
2017-06-28T02:53:38.968Z,993.75
2017-06-28T02:54:05.126Z,993.76
2017-06-28T02:54:31.253Z,993.75
2017-06-28T02:54:57.342Z,993.8
2017-06-28T02:55:23.468Z,993.77
2017-06-28T02:55:49.572Z,993.73
2017-06-28T02:56:15.691Z,993.73
2017-06-28T02:56:41.784Z,993.72
2017-06-28T02:57:07.900Z,993.71
2017-06-28T02:57:34.008Z,993.7
2017-06-28T02:58:00.163Z,993.69
2017-06-28T02:58:26.254Z,993.65
2017-06-28T02:58:52.411Z,993.65
2017-06-28T02:59:18.573Z,993.61
2017-06-28T02:59:44.736Z,993.64
2017-06-28T03:00:10.907Z,993.63
2017-06-28T03:00:37.015Z,993.64
2017-06-28T03:01:03.155Z,993.66
2017-06-28T03:01:29.251Z,993.64
2017-06-28T03:01:55.349Z,993.59
2017-06-28T03:02:21.479Z,993.59
2017-06-28T03:02:47.640Z,993.57
2017-06-28T03:03:13.814Z,993.5
2017-06-28T03:03:39.926Z,993.57
2017-06-28T03:04:06.088Z,993.53
2017-06-28T03:04:32.202Z,993.54
2017-06-28T03:04:58.320Z,993.54
2017-06-28T03:05:24.454Z,993.56
2017-06-28T03:05:50.626Z,993.53
2017-06-28T03:06:16.743Z,993.55
2017-06-28T03:06:42.853Z,993.52
2017-06-28T03:07:09.003Z,993.52
2017-06-28T03:07:35.133Z,993.52
2017-06-28T03:08:01.277Z,993.49
2017-06-28T03:08:27.370Z,993.53
2017-06-28T03:08:53.504Z,993.51
2017-06-28T03:09:19.599Z,993.52
2017-06-28T03:09:45.689Z,993.48
2017-06-28T03:10:11.799Z,993.57
2017-06-28T03:10:37.894Z,993.54
2017-06-28T03:11:03.982Z,993.55
2017-06-28T03:11:30.088Z,993.53
2017-06-28T03:11:56.189Z,993.56
2017-06-28T03:12:22.303Z,993.58
2017-06-28T03:12:48.408Z,993.53
2017-06-28T03:13:14.574Z,993.51
2017-06-28T03:13:40.734Z,993.47
2017-06-28T03:14:06.940Z,993.47
2017-06-28T03:14:33.106Z,993.48
2017-06-28T03:14:59.236Z,993.46
2017-06-28T03:15:25.360Z,993.47
2017-06-28T03:15:51.477Z,993.47
2017-06-28T03:16:17.607Z,993.46
2017-06-28T03:16:43.712Z,993.45
2017-06-28T03:17:09.801Z,993.43
2017-06-28T03:17:35.925Z,993.41
2017-06-28T03:18:02.087Z,993.42
2017-06-28T03:18:28.228Z,993.42
2017-06-28T03:18:54.349Z,993.43
2017-06-28T03:19:20.510Z,993.41
2017-06-28T03:19:46.655Z,993.4
2017-06-28T03:20:12.748Z,993.39
2017-06-28T03:20:38.856Z,993.41
2017-06-28T03:21:05.008Z,993.41
2017-06-28T03:21:31.101Z,993.39
2017-06-28T03:21:57.206Z,993.37
2017-06-28T03:22:23.305Z,993.37
2017-06-28T03:22:49.396Z,993.35
2017-06-28T03:23:15.520Z,993.31
2017-06-28T03:23:41.680Z,993.31
2017-06-28T03:24:07.799Z,993.35
2017-06-28T03:24:33.896Z,993.33
2017-06-28T03:24:59.986Z,993.26
2017-06-28T03:25:26.140Z,993.28
2017-06-28T03:25:52.240Z,993.29
2017-06-28T03:26:18.329Z,993.33
2017-06-28T03:26:44.460Z,993.26
2017-06-28T03:27:10.563Z,993.27
2017-06-28T03:27:36.653Z,993.24
2017-06-28T03:28:02.878Z,993.21
2017-06-28T03:28:29.010Z,993.22
2017-06-28T03:28:55.124Z,993.21
2017-06-28T03:29:21.247Z,993.16
2017-06-28T03:29:47.429Z,993.19
2017-06-28T03:30:13.580Z,993.17
2017-06-28T03:30:39.713Z,993.19
2017-06-28T03:31:05.799Z,993.16
2017-06-28T03:31:31.898Z,993.19
2017-06-28T03:31:58.031Z,993.17
2017-06-28T03:32:24.147Z,993.14
2017-06-28T03:32:50.269Z,993.17
2017-06-28T03:33:16.375Z,993.17
2017-06-28T03:33:42.529Z,993.18
2017-06-28T03:34:08.691Z,993.15
2017-06-28T03:34:34.856Z,993.16
2017-06-28T03:35:00.952Z,993.17
2017-06-28T03:35:27.057Z,993.16
2017-06-28T03:35:53.169Z,993.18
2017-06-28T03:36:19.264Z,993.19
2017-06-28T03:36:45.398Z,993.15
2017-06-28T03:37:11.493Z,993.14
2017-06-28T03:37:37.606Z,993.12
2017-06-28T03:38:03.771Z,993.09
2017-06-28T03:38:29.897Z,993.11
2017-06-28T03:38:56.010Z,993.09
2017-06-28T03:39:22.115Z,993.08
2017-06-28T03:39:48.241Z,993.07
2017-06-28T03:40:14.332Z,993.09
2017-06-28T03:40:40.786Z,993.08
2017-06-28T03:41:06.901Z,993.07
2017-06-28T03:41:33.012Z,993.07
2017-06-28T03:41:59.165Z,993.05
2017-06-28T03:42:25.256Z,993.02
2017-06-28T03:42:51.361Z,993.05
2017-06-28T03:43:17.459Z,993.07
2017-06-28T03:43:43.551Z,993.04
2017-06-28T03:44:09.683Z,993.07
2017-06-28T03:44:35.818Z,993.07
2017-06-28T03:45:01.979Z,993.05
2017-06-28T03:45:28.079Z,993.06
2017-06-28T03:45:54.238Z,993.09
2017-06-28T03:46:20.328Z,993.07
2017-06-28T03:46:46.432Z,993.11
2017-06-28T03:47:12.549Z,993.08
2017-06-28T03:47:38.705Z,993.07
2017-06-28T03:48:04.865Z,993.11
2017-06-28T03:48:30.977Z,993.07
2017-06-28T03:48:57.098Z,993.09
2017-06-28T03:49:23.315Z,993.1
2017-06-28T03:49:49.484Z,993.08
2017-06-28T03:50:15.608Z,993.1
2017-06-28T03:50:41.715Z,993.06
2017-06-28T03:51:07.835Z,993.04
2017-06-28T03:51:33.924Z,993.02
2017-06-28T03:52:00.055Z,992.99
2017-06-28T03:52:26.202Z,993
2017-06-28T03:52:52.307Z,992.99
2017-06-28T03:53:18.428Z,993.01
2017-06-28T03:53:44.550Z,993.01
2017-06-28T03:54:10.713Z,993.02
2017-06-28T03:54:36.885Z,993.01
2017-06-28T03:55:03.002Z,993.04
2017-06-28T03:55:29.112Z,993.06
2017-06-28T03:55:55.236Z,993.08
2017-06-28T03:56:21.352Z,993.07
2017-06-28T03:56:47.484Z,993.08
2017-06-28T03:57:13.611Z,993.13
2017-06-28T03:57:39.785Z,993.13
2017-06-28T03:58:05.928Z,993.13
2017-06-28T03:58:32.066Z,993.11
2017-06-28T03:58:58.205Z,993.09
2017-06-28T03:59:24.360Z,993.13
2017-06-28T03:59:50.474Z,993.17
2017-06-28T04:00:16.607Z,993.14
2017-06-28T04:00:42.707Z,993.14
2017-06-28T04:01:08.798Z,993.17
2017-06-28T04:01:34.903Z,993.12
2017-06-28T04:02:01.038Z,993.12
2017-06-28T04:02:27.123Z,993.15
2017-06-28T04:02:53.272Z,993.11
2017-06-28T04:03:19.483Z,993.12
2017-06-28T04:03:45.602Z,993.12
2017-06-28T04:04:11.723Z,993.13
2017-06-28T04:04:37.915Z,993.14
2017-06-28T04:05:04.007Z,993.12
2017-06-28T04:05:30.099Z,993.1
2017-06-28T04:05:56.207Z,993.08
2017-06-28T04:06:22.306Z,993.13
2017-06-28T04:06:48.421Z,993.09
2017-06-28T04:07:14.525Z,993.09
2017-06-28T04:07:40.625Z,993.09
2017-06-28T04:08:06.739Z,993.05
2017-06-28T04:08:32.872Z,993.11
2017-06-28T04:08:58.989Z,993.07
2017-06-28T04:09:25.184Z,993.08
2017-06-28T04:09:51.308Z,993.04
2017-06-28T04:10:17.397Z,993.07
2017-06-28T04:10:43.506Z,993.04
2017-06-28T04:11:09.657Z,993.05
2017-06-28T04:11:35.770Z,993.05
2017-06-28T04:12:01.903Z,993.05
2017-06-28T04:12:28.009Z,992.99
2017-06-28T04:12:54.145Z,992.99
2017-06-28T04:13:20.272Z,992.97
2017-06-28T04:13:46.406Z,992.94
2017-06-28T04:14:12.552Z,992.92
2017-06-28T04:14:38.710Z,992.89
2017-06-28T04:15:04.826Z,992.92
2017-06-28T04:15:30.978Z,992.94
2017-06-28T04:15:57.142Z,992.93
2017-06-28T04:16:23.254Z,992.94
2017-06-28T04:16:49.383Z,992.93
2017-06-28T04:17:15.518Z,992.93
2017-06-28T04:17:41.609Z,992.92
2017-06-28T04:18:07.731Z,992.91
2017-06-28T04:18:33.924Z,992.95
2017-06-28T04:19:00.042Z,992.89
2017-06-28T04:19:26.134Z,992.89
2017-06-28T04:19:52.239Z,992.89
2017-06-28T04:20:18.339Z,992.84
2017-06-28T04:20:44.473Z,992.85
2017-06-28T04:21:10.563Z,992.87
2017-06-28T04:21:36.686Z,992.82
2017-06-28T04:22:02.793Z,992.83
2017-06-28T04:22:28.887Z,992.81
2017-06-28T04:22:54.979Z,992.8
2017-06-28T04:23:21.089Z,992.82
2017-06-28T04:23:47.241Z,992.82
2017-06-28T04:24:13.407Z,992.82
2017-06-28T04:24:39.539Z,992.84
2017-06-28T04:25:05.668Z,992.79
2017-06-28T04:25:31.767Z,992.78
2017-06-28T04:25:57.888Z,992.82
2017-06-28T04:26:23.978Z,992.82
2017-06-28T04:26:50.115Z,992.81
2017-06-28T04:27:16.211Z,992.8
2017-06-28T04:27:42.303Z,992.79
2017-06-28T04:28:08.489Z,992.82
2017-06-28T04:28:34.644Z,992.83
2017-06-28T04:29:00.831Z,992.78
2017-06-28T04:29:26.992Z,992.82
2017-06-28T04:29:53.127Z,992.81
2017-06-28T04:30:19.239Z,992.83
2017-06-28T04:30:45.364Z,992.83
2017-06-28T04:31:11.484Z,992.83
2017-06-28T04:31:37.620Z,992.82
2017-06-28T04:32:03.748Z,992.83
2017-06-28T04:32:29.934Z,992.81
2017-06-28T04:32:56.059Z,992.79
2017-06-28T04:33:22.167Z,992.82
2017-06-28T04:33:48.304Z,992.79
2017-06-28T04:34:14.407Z,992.84
2017-06-28T04:34:40.541Z,992.77
2017-06-28T04:35:06.632Z,992.78
2017-06-28T04:35:32.729Z,992.77
2017-06-28T04:35:58.837Z,992.75
2017-06-28T04:36:24.932Z,992.79
2017-06-28T04:36:51.038Z,992.77
2017-06-28T04:37:17.180Z,992.77
2017-06-28T04:37:43.306Z,992.75
2017-06-28T04:38:09.495Z,992.74
2017-06-28T04:38:35.636Z,992.76
2017-06-28T04:39:01.759Z,992.74
2017-06-28T04:39:27.920Z,992.74
2017-06-28T04:39:54.095Z,992.7
2017-06-28T04:40:20.188Z,992.7
2017-06-28T04:40:46.353Z,992.75
2017-06-28T04:41:12.505Z,992.77
2017-06-28T04:41:38.596Z,992.74
2017-06-28T04:42:04.727Z,992.74
2017-06-28T04:42:30.872Z,992.76
2017-06-28T04:42:57.034Z,992.74
2017-06-28T04:43:23.157Z,992.76
2017-06-28T04:43:49.251Z,992.73
2017-06-28T04:44:15.411Z,992.85
2017-06-28T04:44:41.566Z,992.85
2017-06-28T04:45:07.681Z,992.86
2017-06-28T04:45:33.789Z,992.77
2017-06-28T04:45:59.917Z,992.79
2017-06-28T04:46:26.032Z,992.85
2017-06-28T04:46:52.140Z,992.82
2017-06-28T04:47:18.274Z,992.83
2017-06-28T04:47:44.384Z,992.82
2017-06-28T04:48:10.512Z,992.8
2017-06-28T04:48:36.677Z,992.78
2017-06-28T04:49:02.769Z,992.8
2017-06-28T04:49:28.939Z,992.79
2017-06-28T04:49:55.045Z,992.8
2017-06-28T04:50:21.167Z,992.76
2017-06-28T04:50:47.283Z,992.81
2017-06-28T04:51:13.393Z,992.76
2017-06-28T04:51:39.490Z,992.8
2017-06-28T04:52:05.607Z,992.85
2017-06-28T04:52:31.715Z,992.77
2017-06-28T04:52:57.845Z,992.79
2017-06-28T04:53:24.019Z,992.78
2017-06-28T04:53:50.163Z,992.77
2017-06-28T04:54:16.253Z,992.76
2017-06-28T04:54:42.416Z,992.76
2017-06-28T04:55:08.565Z,992.72
2017-06-28T04:55:34.656Z,992.74
2017-06-28T04:56:00.791Z,992.72
2017-06-28T04:56:26.919Z,992.71
2017-06-28T04:56:53.032Z,992.71
2017-06-28T04:57:19.163Z,992.7
2017-06-28T04:57:45.269Z,992.68
2017-06-28T04:58:11.358Z,992.66
2017-06-28T04:58:37.509Z,992.63
2017-06-28T04:59:03.657Z,992.62
2017-06-28T04:59:29.818Z,992.61
2017-06-28T04:59:55.945Z,992.6
2017-06-28T05:00:22.060Z,992.57
2017-06-28T05:00:48.242Z,992.54
2017-06-28T05:01:14.347Z,992.54
2017-06-28T05:01:40.486Z,992.57
2017-06-28T05:02:06.584Z,992.53
2017-06-28T05:02:32.718Z,992.55
2017-06-28T05:02:58.833Z,992.55
2017-06-28T05:03:24.931Z,992.55
2017-06-28T05:03:51.038Z,992.54
2017-06-28T05:04:17.131Z,992.56
2017-06-28T05:04:43.289Z,992.54
2017-06-28T05:05:09.377Z,992.56
2017-06-28T05:05:35.525Z,992.55
2017-06-28T05:06:01.687Z,992.55
2017-06-28T05:06:27.778Z,992.57
2017-06-28T05:06:53.874Z,992.57
2017-06-28T05:07:20.009Z,992.57
2017-06-28T05:07:46.131Z,992.57
2017-06-28T05:08:12.248Z,992.57
2017-06-28T05:08:38.442Z,992.53
2017-06-28T05:09:04.566Z,992.52
2017-06-28T05:09:30.681Z,992.5
2017-06-28T05:09:56.788Z,992.51
2017-06-28T05:10:22.916Z,992.51
2017-06-28T05:10:49.057Z,992.49
2017-06-28T05:11:15.161Z,992.48
2017-06-28T05:11:41.266Z,992.48
2017-06-28T05:12:07.354Z,992.47
2017-06-28T05:12:33.454Z,992.49
2017-06-28T05:12:59.619Z,992.47
2017-06-28T05:13:25.761Z,992.49
2017-06-28T05:13:51.932Z,992.48
2017-06-28T05:14:18.069Z,992.48
2017-06-28T05:14:44.164Z,992.43
2017-06-28T05:15:10.281Z,992.49
2017-06-28T05:15:36.408Z,992.48
2017-06-28T05:16:02.535Z,992.47
2017-06-28T05:16:28.641Z,992.48
2017-06-28T05:16:54.758Z,992.49
2017-06-28T05:17:20.878Z,992.48
2017-06-28T05:17:47.012Z,992.51
2017-06-28T05:18:13.128Z,992.52
2017-06-28T05:18:39.295Z,992.51
2017-06-28T05:19:05.498Z,992.54
2017-06-28T05:19:31.673Z,992.56
2017-06-28T05:19:57.791Z,992.56
2017-06-28T05:20:23.952Z,992.55
2017-06-28T05:20:50.081Z,992.58
2017-06-28T05:21:16.179Z,992.57
2017-06-28T05:21:42.273Z,992.59
2017-06-28T05:22:08.387Z,992.58
2017-06-28T05:22:34.494Z,992.56
2017-06-28T05:23:00.591Z,992.54
2017-06-28T05:23:26.707Z,992.58
2017-06-28T05:23:52.872Z,992.57
2017-06-28T05:24:18.997Z,992.55
2017-06-28T05:24:45.163Z,992.54
2017-06-28T05:25:11.291Z,992.56
2017-06-28T05:25:37.456Z,992.62
2017-06-28T05:26:03.565Z,992.57
2017-06-28T05:26:29.818Z,992.6
2017-06-28T05:26:55.942Z,992.58